createdAt,value
2023-04-18T00:01:42.644Z,42.97
2023-04-18T00:04:34.065Z,43.46
2023-04-18T00:07:22.792Z,43.35
2023-04-18T00:10:11.687Z,43.71
2023-04-18T00:13:00.429Z,43.57
2023-04-18T00:15:49.127Z,43.09
2023-04-18T00:18:37.730Z,43.42
2023-04-18T00:21:27.722Z,43.66
2023-04-18T00:24:16.883Z,43.67
2023-04-18T00:27:05.802Z,43.34
2023-04-18T00:29:54.539Z,43.94
2023-04-18T00:32:43.193Z,43.51
2023-04-18T00:35:32.155Z,43.58
2023-04-18T00:38:22.200Z,43.80
2023-04-18T00:41:11.009Z,43.82
2023-04-18T00:43:59.664Z,43.84
2023-04-18T00:46:48.411Z,43.78
2023-04-18T00:49:37.027Z,43.86
2023-04-18T00:52:27.784Z,43.78
2023-04-18T00:55:18.329Z,43.86
2023-04-18T00:58:07.275Z,43.52
2023-04-18T01:00:55.920Z,43.93
2023-04-18T01:03:44.632Z,43.60
2023-04-18T01:06:33.559Z,43.25
2023-04-18T01:09:22.886Z,43.64
2023-04-18T01:12:12.965Z,43.65
2023-04-18T01:15:01.674Z,43.68
2023-04-18T01:17:52.412Z,43.66
2023-04-18T01:20:43.191Z,43.92
2023-04-18T01:23:31.996Z,43.27
2023-04-18T01:26:21.988Z,43.30
2023-04-18T01:29:11.123Z,43.74
2023-04-18T01:31:59.911Z,44.07
2023-04-18T01:34:48.753Z,43.25
2023-04-18T01:37:37.349Z,43.31
2023-04-18T01:40:26.571Z,43.47
2023-04-18T01:43:16.658Z,43.50
2023-04-18T01:46:05.456Z,43.25
2023-04-18T01:48:54.490Z,43.40
2023-04-18T01:51:43.316Z,43.16
2023-04-18T01:54:31.849Z,43.51
2023-04-18T01:57:20.453Z,43.43
2023-04-18T02:00:11.836Z,43.29
2023-04-18T02:03:00.756Z,43.63
2023-04-18T02:05:49.449Z,43.75
2023-04-18T02:08:38.099Z,43.81
2023-04-18T02:11:26.825Z,43.38
2023-04-18T02:14:15.717Z,43.33
2023-04-18T02:17:05.833Z,43.35
2023-04-18T02:19:54.472Z,43.38
2023-04-18T02:22:43.161Z,43.30
2023-04-18T02:25:32.129Z,43.68
2023-04-18T02:28:20.677Z,43.49
2023-04-18T02:31:14.507Z,43.57
2023-04-18T02:34:04.719Z,43.27
2023-04-18T02:36:53.339Z,43.51
2023-04-18T02:39:41.975Z,43.03
2023-04-18T02:42:30.757Z,43.31
2023-04-18T02:45:19.789Z,43.87
2023-04-18T02:48:08.607Z,43.24
2023-04-18T02:51:05.013Z,43.60
2023-04-18T02:53:55.102Z,43.73
2023-04-18T02:56:43.778Z,43.53
2023-04-18T02:59:32.358Z,43.71
2023-04-18T03:02:21.160Z,44.12
2023-04-18T03:05:10.120Z,43.45
2023-04-18T03:08:00.186Z,43.89
2023-04-18T03:10:48.979Z,43.96
2023-04-18T03:13:37.844Z,43.81
2023-04-18T03:16:26.555Z,43.65
2023-04-18T03:19:15.262Z,43.48
2023-04-18T03:22:03.874Z,44.11
2023-04-18T03:24:53.889Z,43.99
2023-04-18T03:27:43.176Z,44.04
2023-04-18T03:30:32.494Z,43.98
2023-04-18T03:33:21.113Z,43.72
2023-04-18T03:36:09.965Z,43.80
2023-04-18T03:38:58.512Z,44.12
2023-04-18T03:41:49.324Z,43.98
2023-04-18T03:44:37.930Z,43.84
2023-04-18T03:47:26.598Z,44.07
2023-04-18T03:50:15.220Z,44.08
2023-04-18T03:53:03.794Z,44.13
2023-04-18T03:55:52.487Z,43.87
2023-04-18T03:58:42.543Z,44.04
2023-04-18T04:01:31.228Z,43.84
2023-04-18T04:04:19.923Z,44.05
2023-04-18T04:07:08.610Z,44.20
2023-04-18T04:09:58.310Z,43.88
2023-04-18T04:12:46.928Z,43.74
2023-04-18T04:15:38.608Z,43.43
2023-04-18T04:18:31.046Z,43.08
2023-04-18T04:21:21.190Z,42.70
2023-04-18T04:24:11.668Z,42.39
2023-04-18T04:27:00.895Z,42.34
2023-04-18T04:29:49.714Z,41.88
2023-04-18T04:32:39.816Z,42.17
2023-04-18T04:35:28.480Z,42.12
2023-04-18T04:38:17.258Z,41.92
2023-04-18T04:41:07.576Z,41.99
2023-04-18T04:43:56.134Z,42.87
2023-04-18T04:46:44.882Z,43.18
2023-04-18T04:49:34.875Z,43.32
2023-04-18T04:52:26.514Z,42.50
2023-04-18T04:55:15.113Z,42.13
2023-04-18T04:58:03.749Z,42.04
2023-04-18T05:00:53.477Z,41.75
2023-04-18T05:03:42.357Z,42.01
2023-04-18T05:06:32.453Z,41.83
2023-04-18T05:09:21.166Z,41.62
2023-04-18T05:12:10.166Z,42.08
2023-04-18T05:14:58.818Z,41.59
2023-04-18T05:17:47.475Z,41.84
2023-04-18T05:20:36.262Z,41.72
2023-04-18T05:23:26.829Z,41.44
2023-04-18T05:26:15.657Z,41.77
2023-04-18T05:29:05.000Z,41.66
2023-04-18T05:31:53.728Z,41.55
2023-04-18T05:34:42.643Z,41.46
2023-04-18T05:37:31.239Z,41.66
2023-04-18T05:40:23.479Z,41.62
2023-04-18T05:43:12.207Z,41.42
2023-04-18T05:46:04.456Z,41.20
2023-04-18T05:48:53.840Z,41.09
2023-04-18T05:51:42.440Z,40.80
2023-04-18T05:54:31.135Z,41.18
2023-04-18T05:57:21.117Z,42.01
2023-04-18T06:00:12.250Z,41.75
2023-04-18T06:03:01.168Z,41.45
2023-04-18T06:05:49.954Z,41.54
2023-04-18T06:08:40.588Z,41.39
2023-04-18T06:11:29.169Z,42.08
2023-04-18T06:14:19.160Z,41.89
2023-04-18T06:17:10.164Z,42.16
2023-04-18T06:19:58.792Z,42.24
2023-04-18T06:22:47.425Z,42.36
2023-04-18T06:25:36.148Z,42.02
2023-04-18T06:28:24.927Z,41.70
2023-04-18T06:31:15.144Z,41.95
2023-04-18T06:34:03.915Z,41.60
2023-04-18T06:36:52.769Z,41.64
2023-04-18T06:39:41.505Z,40.78
2023-04-18T06:42:30.140Z,40.66
2023-04-18T06:45:18.977Z,40.80
2023-04-18T06:48:10.750Z,40.20
2023-04-18T06:50:59.644Z,40.58
2023-04-18T06:53:48.482Z,40.73
2023-04-18T06:56:37.291Z,40.65
2023-04-18T06:59:25.987Z,40.41
2023-04-18T07:02:14.812Z,40.42
2023-04-18T07:05:05.099Z,40.20
2023-04-18T07:07:53.761Z,40.66
2023-04-18T07:10:44.202Z,40.18
2023-04-18T07:13:32.805Z,40.31
2023-04-18T07:16:21.672Z,40.33
2023-04-18T07:19:10.337Z,40.51
2023-04-18T07:22:00.340Z,40.27
2023-04-18T07:24:49.256Z,40.00
2023-04-18T07:27:38.532Z,40.47
2023-04-18T07:30:27.431Z,39.92
2023-04-18T07:33:16.090Z,40.06
2023-04-18T07:36:04.850Z,40.15
2023-04-18T07:38:54.981Z,39.70
2023-04-18T07:41:43.747Z,40.12
2023-04-18T07:44:32.609Z,40.05
2023-04-18T07:47:22.373Z,39.95
2023-04-18T07:50:12.308Z,39.96
2023-04-18T07:53:01.527Z,39.69
2023-04-18T07:55:51.522Z,39.71
2023-04-18T07:58:40.459Z,39.80
2023-04-18T08:01:29.070Z,39.66
2023-04-18T08:04:17.898Z,39.91
2023-04-18T08:07:06.588Z,40.10
2023-04-18T08:09:55.193Z,40.12
2023-04-18T08:12:45.244Z,39.75
2023-04-18T08:15:34.015Z,39.93
2023-04-18T08:18:23.217Z,39.69
2023-04-18T08:21:11.928Z,39.66
2023-04-18T08:24:00.560Z,39.42
2023-04-18T08:26:49.190Z,39.42
2023-04-18T08:29:39.205Z,39.58
2023-04-18T08:32:27.956Z,39.58
2023-04-18T08:35:16.695Z,39.50
2023-04-18T08:38:05.291Z,39.72
2023-04-18T08:40:53.900Z,39.40
2023-04-18T08:43:42.488Z,39.34
2023-04-18T08:46:35.864Z,39.48
2023-04-18T08:49:25.890Z,39.39
2023-04-18T08:52:16.760Z,39.33
2023-04-18T08:55:05.938Z,39.72
2023-04-18T08:57:55.892Z,39.76
2023-04-18T09:00:52.098Z,39.80
2023-04-18T09:03:44.217Z,39.86
2023-04-18T09:06:33.485Z,40.13
2023-04-18T09:09:27.335Z,40.10
2023-04-18T09:12:18.588Z,40.03
2023-04-18T09:15:15.414Z,39.79
2023-04-18T09:18:04.083Z,39.84
2023-04-18T09:20:55.010Z,39.88
2023-04-18T09:23:43.639Z,39.61
2023-04-18T09:26:36.558Z,39.59
2023-04-18T09:29:46.245Z,39.79
2023-04-18T09:32:34.892Z,39.38
2023-04-18T09:35:26.940Z,39.48
2023-04-18T09:38:17.030Z,39.49
2023-04-18T09:41:09.983Z,39.46
2023-04-18T09:44:14.356Z,39.53
2023-04-18T09:47:04.140Z,39.44
2023-04-18T09:49:52.868Z,39.52
2023-04-18T09:52:43.641Z,39.37
2023-04-18T09:55:34.024Z,39.53
2023-04-18T09:58:24.051Z,39.33
2023-04-18T10:01:13.382Z,39.25
2023-04-18T10:04:04.461Z,39.42
2023-04-18T10:06:55.491Z,39.10
2023-04-18T10:09:47.167Z,39.00
2023-04-18T10:12:39.730Z,39.08
2023-04-18T10:15:31.142Z,39.08
2023-04-18T10:18:24.942Z,38.85
2023-04-18T10:21:14.040Z,39.46
2023-04-18T10:24:02.722Z,39.08
2023-04-18T10:26:51.611Z,39.21
2023-04-18T10:29:51.732Z,39.18
2023-04-18T10:32:41.994Z,39.26
2023-04-18T10:35:30.634Z,39.39
2023-04-18T10:38:19.296Z,39.07
2023-04-18T10:41:25.342Z,39.13
2023-04-18T10:44:19.586Z,39.29
2023-04-18T10:47:23.125Z,39.70
2023-04-18T10:50:11.912Z,39.90
2023-04-18T10:53:00.725Z,40.33
2023-04-18T10:55:56.627Z,40.30
2023-04-18T10:58:50.540Z,39.82
2023-04-18T11:01:43.880Z,39.54
2023-04-18T11:04:34.009Z,39.15
2023-04-18T11:07:34.012Z,39.06
2023-04-18T11:10:24.563Z,38.99
2023-04-18T11:13:13.295Z,38.81
2023-04-18T11:16:02.277Z,38.26
2023-04-18T11:18:51.277Z,38.68
2023-04-18T11:21:45.273Z,38.35
2023-04-18T11:24:34.017Z,38.99
2023-04-18T11:27:26.845Z,38.40
2023-04-18T11:30:16.491Z,38.68
2023-04-18T11:33:07.641Z,38.79
2023-04-18T11:35:59.740Z,39.09
2023-04-18T11:38:49.840Z,39.08
2023-04-18T11:41:38.454Z,38.91
2023-04-18T11:44:28.234Z,38.80
2023-04-18T11:47:27.165Z,39.10
2023-04-18T11:50:15.968Z,38.80
2023-04-18T11:53:04.630Z,38.87
2023-04-18T11:55:57.925Z,38.83
2023-04-18T11:58:46.727Z,38.85
2023-04-18T12:01:35.478Z,38.59
2023-04-18T12:04:24.425Z,39.00
2023-04-18T12:07:13.170Z,38.63
2023-04-18T12:10:01.985Z,38.86
2023-04-18T12:12:53.681Z,38.68
2023-04-18T12:15:45.092Z,38.56
2023-04-18T12:18:34.030Z,38.97
2023-04-18T12:21:26.969Z,38.68
2023-04-18T12:24:18.987Z,38.92
2023-04-18T12:27:07.585Z,38.95
2023-04-18T12:29:57.613Z,39.33
2023-04-18T12:32:46.630Z,39.07
2023-04-18T12:35:35.619Z,39.16
2023-04-18T12:38:25.164Z,38.97
2023-04-18T12:41:13.696Z,38.73
2023-04-18T12:44:02.897Z,39.19
2023-04-18T12:46:52.876Z,39.03
2023-04-18T12:49:41.563Z,38.94
2023-04-18T12:52:31.524Z,39.20
2023-04-18T12:55:20.315Z,38.87
2023-04-18T12:58:08.963Z,38.88
2023-04-18T13:00:57.708Z,39.10
2023-04-18T13:03:56.535Z,39.37
2023-04-18T13:06:53.267Z,39.66
2023-04-18T13:09:42.010Z,39.28
2023-04-18T13:12:30.684Z,39.11
2023-04-18T13:15:22.891Z,39.00
2023-04-18T13:18:11.604Z,40.02
2023-04-18T13:21:01.718Z,39.20
2023-04-18T13:23:50.310Z,39.26
2023-04-18T13:26:38.988Z,39.07
2023-04-18T13:29:27.659Z,39.24
2023-04-18T13:32:16.831Z,38.80
2023-04-18T13:35:08.268Z,38.74
2023-04-18T13:37:58.322Z,38.57
2023-04-18T13:40:46.979Z,38.70
2023-04-18T13:43:38.292Z,38.53
2023-04-18T13:46:28.178Z,38.29
2023-04-18T13:49:16.821Z,37.82
2023-04-18T13:52:06.284Z,37.83
2023-04-18T13:54:56.353Z,37.44
2023-04-18T13:57:44.959Z,37.42
2023-04-18T14:00:33.856Z,38.01
2023-04-18T14:03:22.624Z,37.96
2023-04-18T14:06:11.502Z,37.53
2023-04-18T14:09:00.287Z,37.42
2023-04-18T14:11:51.049Z,38.19
2023-04-18T14:14:39.718Z,38.20
2023-04-18T14:17:28.361Z,38.41
2023-04-18T14:20:19.166Z,38.56
2023-04-18T14:23:07.725Z,38.50
2023-04-18T14:25:56.367Z,38.58
2023-04-18T14:28:46.976Z,38.49
2023-04-18T14:31:38.494Z,38.94
2023-04-18T14:34:27.159Z,38.82
2023-04-18T14:37:17.188Z,39.02
2023-04-18T14:40:08.279Z,39.01
2023-04-18T14:42:56.997Z,38.62
2023-04-18T14:45:47.094Z,38.51
2023-04-18T14:48:35.709Z,38.94
2023-04-18T14:51:26.166Z,39.11
2023-04-18T14:54:14.903Z,39.15
2023-04-18T14:57:03.557Z,39.57
2023-04-18T14:59:53.858Z,39.63
2023-04-18T15:02:47.144Z,40.07
2023-04-18T15:05:38.733Z,39.82
2023-04-18T15:08:27.484Z,40.12
2023-04-18T15:11:16.158Z,39.97
2023-04-18T15:14:04.773Z,39.83
2023-04-18T15:16:53.504Z,39.79
2023-04-18T15:19:43.509Z,39.84
2023-04-18T15:22:32.182Z,39.42
2023-04-18T15:25:21.005Z,39.73
2023-04-18T15:28:09.707Z,40.28
2023-04-18T15:30:58.327Z,40.42
2023-04-18T15:33:46.995Z,40.11
2023-04-18T15:36:37.167Z,39.92
2023-04-18T15:39:25.986Z,39.79
2023-04-18T15:42:14.672Z,40.30
2023-04-18T15:45:03.642Z,40.42
2023-04-18T15:47:52.662Z,40.42
2023-04-18T15:50:41.964Z,40.23
2023-04-18T15:53:32.658Z,40.33
2023-04-18T15:56:21.758Z,40.42
2023-04-18T15:59:11.094Z,40.20
2023-04-18T16:01:59.841Z,40.66
2023-04-18T16:04:48.988Z,40.29
2023-04-18T16:07:40.563Z,40.36
2023-04-18T16:10:30.526Z,40.77
2023-04-18T16:13:19.340Z,40.47
2023-04-18T16:16:08.805Z,40.57
2023-04-18T16:18:57.476Z,40.53
2023-04-18T16:21:48.872Z,40.55
2023-04-18T16:24:37.680Z,40.47
2023-04-18T16:27:27.796Z,40.75
2023-04-18T16:30:16.643Z,40.77
2023-04-18T16:33:05.856Z,40.91
2023-04-18T16:35:54.623Z,40.51
2023-04-18T16:38:43.268Z,40.81
2023-04-18T16:41:31.857Z,40.71
2023-04-18T16:44:21.873Z,40.38
2023-04-18T16:47:10.506Z,40.30
2023-04-18T16:49:59.295Z,40.16
2023-04-18T16:52:48.167Z,40.58
2023-04-18T16:55:36.836Z,40.46
2023-04-18T16:58:25.429Z,40.05
2023-04-18T17:01:15.570Z,40.18
2023-04-18T17:04:04.390Z,40.47
2023-04-18T17:06:53.079Z,40.09
2023-04-18T17:09:41.756Z,40.51
2023-04-18T17:12:30.384Z,40.42
2023-04-18T17:15:19.466Z,40.18
2023-04-18T17:18:09.642Z,40.45
2023-04-18T17:20:58.405Z,39.91
2023-04-18T17:23:47.680Z,40.57
2023-04-18T17:26:37.954Z,41.08
2023-04-18T17:29:26.705Z,40.97
2023-04-18T17:32:15.481Z,40.59
2023-04-18T17:35:06.505Z,40.85
2023-04-18T17:37:55.121Z,40.83
2023-04-18T17:40:43.733Z,40.75
2023-04-18T17:43:32.351Z,40.50
2023-04-18T17:46:21.203Z,40.48
2023-04-18T17:49:10.351Z,40.66
2023-04-18T17:52:00.478Z,40.71
2023-04-18T17:54:49.174Z,40.91
2023-04-18T17:57:37.850Z,40.90
2023-04-18T18:00:29.234Z,40.82
2023-04-18T18:03:18.476Z,40.81
2023-04-18T18:06:07.549Z,40.70
2023-04-18T18:08:57.890Z,40.66
2023-04-18T18:11:46.737Z,40.71
2023-04-18T18:14:35.378Z,41.25
2023-04-18T18:17:24.085Z,40.88
2023-04-18T18:20:13.144Z,41.15
2023-04-18T18:23:02.753Z,41.45
2023-04-18T18:25:52.784Z,41.31
2023-04-18T18:28:41.381Z,41.63
2023-04-18T18:31:30.124Z,41.31
2023-04-18T18:34:19.905Z,41.12
2023-04-18T18:37:08.598Z,41.63
2023-04-18T18:39:57.318Z,41.30
2023-04-18T18:42:49.398Z,41.42
2023-04-18T18:45:39.205Z,41.45
2023-04-18T18:48:28.831Z,41.13
2023-04-18T18:51:19.277Z,41.77
2023-04-18T18:54:08.194Z,41.43
2023-04-18T18:56:56.796Z,41.10
2023-04-18T18:59:46.838Z,40.97
2023-04-18T19:02:35.904Z,41.07
2023-04-18T19:05:24.935Z,41.27
2023-04-18T19:08:13.549Z,41.26
2023-04-18T19:11:02.217Z,41.42
2023-04-18T19:13:53.166Z,41.15
2023-04-18T19:16:43.317Z,41.45
2023-04-18T19:19:32.258Z,41.22
2023-04-18T19:22:20.990Z,41.30
2023-04-18T19:25:11.174Z,41.32
2023-04-18T19:27:59.935Z,41.18
2023-04-18T19:30:48.592Z,40.94
2023-04-18T19:33:39.409Z,41.13
2023-04-18T19:36:28.074Z,41.34
2023-04-18T19:39:17.413Z,41.15
2023-04-18T19:42:06.253Z,41.04
2023-04-18T19:44:56.363Z,41.19
2023-04-18T19:47:45.083Z,41.05
2023-04-18T19:50:35.111Z,41.11
2023-04-18T19:53:23.890Z,40.84
2023-04-18T19:56:14.175Z,41.05
2023-04-18T19:59:05.888Z,41.25
2023-04-18T20:01:54.575Z,41.52
2023-04-18T20:04:44.121Z,41.11
2023-04-18T20:07:34.272Z,41.40
2023-04-18T20:10:23.172Z,41.01
2023-04-18T20:13:11.823Z,41.03
2023-04-18T20:16:00.514Z,41.14
2023-04-18T20:18:50.087Z,41.21
2023-04-18T20:21:38.671Z,41.29
2023-04-18T20:24:28.985Z,41.36
2023-04-18T20:27:20.301Z,41.32
2023-04-18T20:30:09.994Z,41.49
2023-04-18T20:32:58.686Z,41.55
2023-04-18T20:35:47.601Z,41.23
2023-04-18T20:38:36.883Z,41.13
2023-04-18T20:41:27.244Z,41.09
2023-04-18T20:44:16.081Z,41.06
2023-04-18T20:47:04.650Z,41.21
2023-04-18T20:49:53.264Z,40.98
2023-04-18T20:52:42.841Z,41.02
2023-04-18T20:55:31.634Z,40.84
2023-04-18T20:58:21.724Z,40.93
2023-04-18T21:01:10.449Z,41.15
2023-04-18T21:03:59.465Z,41.39
2023-04-18T21:06:48.192Z,41.89
2023-04-18T21:09:37.554Z,42.04
2023-04-18T21:12:26.224Z,41.96
2023-04-18T21:15:16.376Z,42.26
2023-04-18T21:18:05.301Z,41.94
2023-04-18T21:20:54.017Z,42.27
2023-04-18T21:23:43.644Z,42.16
2023-04-18T21:26:32.312Z,41.94
2023-04-18T21:29:21.660Z,42.24
2023-04-18T21:32:11.651Z,42.25
2023-04-18T21:35:01.454Z,42.28
2023-04-18T21:37:50.281Z,42.17
2023-04-18T21:40:38.881Z,42.33
2023-04-18T21:43:27.533Z,42.30
2023-04-18T21:46:16.987Z,42.63
2023-04-18T21:49:07.024Z,42.64
2023-04-18T21:51:55.878Z,42.38
2023-04-18T21:54:44.526Z,42.54
2023-04-18T21:57:33.172Z,42.97
2023-04-18T22:00:21.997Z,43.01
2023-04-18T22:03:11.222Z,43.03
2023-04-18T22:06:02.183Z,42.79
2023-04-18T22:08:51.638Z,42.73
2023-04-18T22:11:40.220Z,42.91
2023-04-18T22:14:28.972Z,42.73
2023-04-18T22:17:17.529Z,42.95
2023-04-18T22:20:18.652Z,43.37
2023-04-18T22:23:08.787Z,42.96
2023-04-18T22:25:57.579Z,42.86
2023-04-18T22:28:46.512Z,43.07
2023-04-18T22:31:35.105Z,43.15
2023-04-18T22:34:23.720Z,43.21
2023-04-18T22:37:12.314Z,43.20
2023-04-18T22:40:02.475Z,43.24
2023-04-18T22:42:51.979Z,43.68
2023-04-18T22:45:40.640Z,43.20
2023-04-18T22:48:29.370Z,43.69
2023-04-18T22:51:20.237Z,43.40
2023-04-18T22:54:08.794Z,43.27
2023-04-18T22:56:58.999Z,43.73
2023-04-18T22:59:47.680Z,43.60
2023-04-18T23:02:36.415Z,43.31
2023-04-18T23:05:25.255Z,43.54
2023-04-18T23:08:13.894Z,43.66
2023-04-18T23:11:02.497Z,43.08
2023-04-18T23:13:52.551Z,42.96
2023-04-18T23:16:43.303Z,43.21
2023-04-18T23:19:32.407Z,43.63
2023-04-18T23:22:21.347Z,43.39
2023-04-18T23:25:10.155Z,43.20
2023-04-18T23:27:58.714Z,43.36
2023-04-18T23:30:50.117Z,43.27
2023-04-18T23:33:38.742Z,43.09
2023-04-18T23:36:27.412Z,43.20
2023-04-18T23:39:18.412Z,43.16
2023-04-18T23:42:07.165Z,43.06
2023-04-18T23:44:55.770Z,43.04
2023-04-18T23:47:45.841Z,43.30
2023-04-18T23:50:34.574Z,43.20
2023-04-18T23:53:24.781Z,43.45
2023-04-18T23:56:13.448Z,43.18
2023-04-18T23:59:02.029Z,43.39
